createdAt,value
2023-03-30T00:02:10.993Z,8.57
2023-03-30T00:04:43.389Z,13.70
2023-03-30T00:07:15.821Z,10.00
2023-03-30T00:09:48.055Z,12.57
2023-03-30T00:12:21.029Z,15.93
2023-03-30T00:14:53.315Z,14.50
2023-03-30T00:17:26.343Z,16.23
2023-03-30T00:19:58.632Z,11.38
2023-03-30T00:22:30.907Z,11.82
2023-03-30T00:25:03.119Z,9.88
2023-03-30T00:27:36.969Z,18.90
2023-03-30T00:30:14.742Z,20.17
2023-03-30T00:32:47.369Z,13.05
2023-03-30T00:37:53.049Z,10.93
2023-03-30T00:40:25.481Z,14.70
2023-03-30T00:43:02.344Z,12.15
2023-03-30T00:45:36.803Z,15.82
2023-03-30T00:48:27.580Z,12.07
2023-03-30T00:51:05.075Z,15.07
2023-03-30T00:53:49.284Z,8.63
2023-03-30T00:56:27.304Z,11.93
2023-03-30T00:59:02.766Z,10.15
2023-03-30T01:01:39.458Z,13.15
2023-03-30T01:04:12.210Z,14.90
2023-03-30T01:06:46.694Z,6.97
2023-03-30T01:09:19.956Z,17.33
2023-03-30T01:11:52.333Z,13.18
2023-03-30T01:14:25.260Z,16.52
2023-03-30T01:17:09.481Z,19.08
2023-03-30T01:20:23.808Z,11.25
2023-03-30T01:23:14.109Z,14.00
2023-03-30T01:26:11.741Z,12.02
2023-03-30T01:28:57.791Z,12.25
2023-03-30T01:31:48.661Z,10.95
2023-03-30T01:34:36.304Z,17.02
2023-03-30T01:37:23.015Z,14.35
2023-03-30T01:40:13.389Z,11.52
2023-03-30T01:43:08.682Z,14.57
2023-03-30T01:46:07.214Z,9.18
2023-03-30T01:48:50.424Z,11.93
2023-03-30T01:51:27.768Z,9.83
2023-03-30T01:54:17.989Z,8.63
2023-03-30T01:56:57.161Z,11.43
2023-03-30T01:59:42.157Z,9.38
2023-03-30T02:02:17.672Z,22.58
2023-03-30T02:04:54.723Z,13.63
2023-03-30T02:07:32.277Z,17.35
2023-03-30T02:10:08.344Z,11.65
2023-03-30T02:12:41.540Z,12.48
2023-03-30T02:15:16.817Z,19.00
2023-03-30T02:17:51.584Z,16.55
2023-03-30T02:20:24.002Z,13.75
2023-03-30T02:22:57.388Z,14.32
2023-03-30T02:25:34.027Z,12.55
2023-03-30T02:28:10.099Z,15.02
2023-03-30T02:30:45.449Z,14.30
2023-03-30T02:33:27.959Z,22.38
2023-03-30T02:36:06.722Z,13.38
2023-03-30T02:38:57.690Z,15.70
2023-03-30T02:41:38.582Z,16.92
2023-03-30T02:44:22.553Z,15.85
2023-03-30T02:47:04.832Z,6.00
2023-03-30T02:49:47.201Z,15.02
2023-03-30T02:52:45.107Z,11.43
2023-03-30T02:55:34.777Z,11.20
2023-03-30T02:58:50.175Z,13.45
2023-03-30T03:01:41.045Z,15.13
2023-03-30T03:04:22.386Z,15.93
2023-03-30T03:07:28.331Z,14.85
2023-03-30T03:10:01.462Z,13.20
2023-03-30T03:12:33.926Z,13.52
2023-03-30T03:15:07.832Z,14.00
2023-03-30T03:17:45.578Z,14.25
2023-03-30T03:20:18.714Z,17.67
2023-03-30T03:22:51.019Z,21.08
2023-03-30T03:25:23.581Z,21.65
2023-03-30T03:28:03.668Z,23.30
2023-03-30T03:30:42.921Z,21.50
2023-03-30T03:33:21.985Z,23.30
2023-03-30T03:36:02.807Z,22.42
2023-03-30T03:38:37.901Z,19.85
2023-03-30T03:41:11.481Z,19.00
2023-03-30T03:43:45.421Z,14.10
2023-03-30T03:46:19.241Z,23.48
2023-03-30T03:48:51.772Z,17.85
2023-03-30T03:51:24.278Z,23.80
2023-03-30T03:53:56.934Z,21.65
2023-03-30T03:56:31.405Z,19.52
2023-03-30T03:59:05.015Z,25.42
2023-03-30T04:04:10.034Z,16.00
2023-03-30T04:06:42.333Z,16.95
2023-03-30T04:09:14.648Z,29.15
2023-03-30T04:14:47.182Z,21.25
2023-03-30T04:17:35.447Z,29.27
2023-03-30T04:20:23.719Z,28.40
2023-03-30T04:23:22.058Z,22.17
2023-03-30T04:26:14.061Z,16.98
2023-03-30T04:29:08.399Z,32.78
2023-03-30T04:32:13.518Z,35.17
2023-03-30T04:35:19.461Z,37.65
2023-03-30T04:38:14.166Z,34.08
2023-03-30T04:41:15.746Z,38.80
2023-03-30T04:44:07.003Z,40.47
2023-03-30T04:47:02.324Z,25.83
2023-03-30T04:50:01.921Z,23.33
2023-03-30T04:52:52.718Z,23.23
2023-03-30T04:55:37.649Z,25.33
2023-03-30T04:58:36.233Z,21.33
2023-03-30T05:01:31.931Z,22.92
2023-03-30T05:04:22.592Z,21.73
2023-03-30T05:07:15.498Z,28.10
2023-03-30T05:10:12.885Z,26.40
2023-03-30T05:12:46.676Z,26.47
2023-03-30T05:15:28.152Z,28.35
2023-03-30T05:18:22.503Z,30.92
2023-03-30T05:21:22.058Z,22.40
2023-03-30T05:23:57.470Z,27.33
2023-03-30T05:26:58.848Z,24.92
2023-03-30T05:29:42.610Z,30.30
2023-03-30T05:32:33.399Z,24.70
2023-03-30T05:35:24.346Z,23.67
2023-03-30T05:38:11.800Z,24.10
2023-03-30T05:41:09.294Z,36.85
2023-03-30T05:43:59.855Z,27.17
2023-03-30T05:46:41.559Z,27.67
2023-03-30T05:49:30.488Z,30.25
2023-03-30T05:52:11.796Z,27.30
2023-03-30T05:55:09.973Z,33.53
2023-03-30T05:57:57.218Z,27.55
2023-03-30T06:00:37.519Z,29.20
2023-03-30T06:03:18.835Z,26.33
2023-03-30T06:05:53.656Z,22.57
2023-03-30T06:08:27.302Z,28.15
2023-03-30T06:11:04.565Z,26.40
2023-03-30T06:13:48.454Z,29.63
2023-03-30T06:16:22.351Z,23.67
2023-03-30T06:18:54.891Z,33.77
2023-03-30T06:21:27.891Z,25.47
2023-03-30T06:24:21.056Z,24.55
2023-03-30T06:26:56.220Z,29.58
2023-03-30T06:29:28.651Z,24.40
2023-03-30T06:32:01.729Z,23.50
2023-03-30T06:34:46.451Z,19.52
2023-03-30T06:37:20.665Z,16.10
2023-03-30T06:39:54.873Z,22.88
2023-03-30T06:42:28.079Z,26.77
2023-03-30T06:45:17.441Z,21.15
2023-03-30T06:47:50.158Z,20.75
2023-03-30T06:50:22.767Z,22.38
2023-03-30T06:53:06.099Z,17.33
2023-03-30T06:55:54.852Z,18.55
2023-03-30T06:58:28.279Z,23.88
2023-03-30T07:01:11.772Z,21.73
2023-03-30T07:04:13.098Z,21.23
2023-03-30T07:07:11.493Z,20.73
2023-03-30T07:09:43.788Z,19.38
2023-03-30T07:12:16.641Z,26.27
2023-03-30T07:14:50.170Z,18.55
2023-03-30T07:17:26.455Z,24.02
2023-03-30T07:20:00.851Z,21.98
2023-03-30T07:22:33.883Z,25.13
2023-03-30T07:25:06.949Z,15.63
2023-03-30T07:27:39.943Z,20.27
2023-03-30T07:30:21.238Z,22.65
2023-03-30T07:32:58.898Z,16.42
2023-03-30T07:35:31.583Z,19.90
2023-03-30T07:38:05.971Z,18.48
2023-03-30T07:40:42.658Z,23.35
2023-03-30T07:43:15.897Z,21.58
2023-03-30T07:45:49.873Z,23.05
2023-03-30T07:48:35.094Z,20.88
2023-03-30T07:51:14.936Z,18.45
2023-03-30T07:53:56.282Z,18.27
2023-03-30T07:56:39.376Z,13.70
2023-03-30T07:59:13.849Z,19.10
2023-03-30T08:01:50.789Z,18.30
2023-03-30T08:04:45.886Z,20.60
2023-03-30T08:07:20.746Z,21.83
2023-03-30T08:09:56.782Z,22.42
2023-03-30T08:12:29.078Z,16.48
2023-03-30T08:15:02.406Z,21.03
2023-03-30T08:17:34.682Z,16.83
2023-03-30T08:20:10.999Z,23.75
2023-03-30T08:22:43.684Z,13.18
2023-03-30T08:25:15.971Z,20.33
2023-03-30T08:27:48.140Z,22.85
2023-03-30T08:30:20.788Z,12.70
2023-03-30T08:32:54.036Z,11.48
2023-03-30T08:35:26.938Z,13.88
2023-03-30T08:37:59.821Z,19.13
2023-03-30T08:40:32.158Z,13.95
2023-03-30T08:43:28.868Z,12.75
2023-03-30T08:46:02.481Z,16.33
2023-03-30T08:51:24.806Z,13.05
2023-03-30T08:54:01.717Z,19.65
2023-03-30T08:56:39.984Z,14.05
2023-03-30T08:59:33.850Z,12.15
2023-03-30T09:02:17.306Z,14.07
2023-03-30T09:05:22.725Z,13.25
2023-03-30T09:08:13.744Z,16.15
2023-03-30T09:11:08.937Z,10.13
2023-03-30T09:13:45.744Z,14.80
2023-03-30T09:16:39.199Z,12.65
2023-03-30T09:19:20.023Z,13.98
2023-03-30T09:21:54.282Z,16.60
2023-03-30T09:24:27.562Z,13.18
2023-03-30T09:27:09.768Z,18.98
2023-03-30T09:29:51.745Z,12.73
2023-03-30T09:32:41.053Z,14.60
2023-03-30T09:35:19.380Z,18.63
2023-03-30T09:37:51.537Z,13.98
2023-03-30T09:40:34.922Z,23.42
2023-03-30T09:43:16.635Z,12.65
2023-03-30T09:45:48.856Z,19.05
2023-03-30T09:48:21.469Z,13.70
2023-03-30T09:50:54.037Z,22.85
2023-03-30T09:53:29.749Z,16.13
2023-03-30T09:56:10.522Z,17.88
2023-03-30T09:58:43.108Z,13.50
2023-03-30T10:01:18.661Z,12.88
2023-03-30T10:04:10.141Z,14.88
2023-03-30T10:06:50.213Z,12.32
2023-03-30T10:09:24.212Z,18.75
2023-03-30T10:11:57.462Z,20.17
2023-03-30T10:14:34.090Z,14.40
2023-03-30T10:17:06.832Z,12.73
2023-03-30T10:19:45.856Z,21.27
2023-03-30T10:22:25.972Z,20.95
2023-03-30T10:24:58.473Z,20.90
2023-03-30T10:27:37.723Z,22.20
2023-03-30T10:30:17.841Z,21.33
2023-03-30T10:32:50.138Z,17.60
2023-03-30T10:35:25.723Z,23.55
2023-03-30T10:38:00.037Z,20.45
2023-03-30T10:40:36.839Z,19.50
2023-03-30T10:43:15.633Z,17.58
2023-03-30T10:46:09.069Z,28.30
2023-03-30T10:49:07.548Z,16.20
2023-03-30T10:52:03.354Z,18.23
2023-03-30T10:54:43.193Z,21.10
2023-03-30T10:57:24.473Z,17.98
2023-03-30T11:00:10.330Z,19.08
2023-03-30T11:02:47.866Z,18.25
2023-03-30T11:05:27.240Z,20.45
2023-03-30T11:08:02.628Z,26.00
2023-03-30T11:10:42.219Z,24.48
2023-03-30T11:13:28.038Z,24.95
2023-03-30T11:16:03.309Z,22.15
2023-03-30T11:18:51.949Z,18.50
2023-03-30T11:21:47.011Z,21.10
2023-03-30T11:24:23.755Z,21.38
2023-03-30T11:27:16.095Z,22.35
2023-03-30T11:30:28.682Z,27.83
2023-03-30T11:33:09.889Z,20.48
2023-03-30T11:35:53.654Z,22.67
2023-03-30T11:38:49.222Z,19.08
2023-03-30T11:41:31.874Z,26.38
2023-03-30T11:44:04.135Z,12.02
2023-03-30T11:46:53.632Z,14.27
2023-03-30T11:49:35.175Z,13.38
2023-03-30T11:52:22.435Z,11.23
2023-03-30T11:55:16.965Z,12.00
2023-03-30T11:58:07.539Z,10.02
2023-03-30T12:00:52.679Z,12.88
2023-03-30T12:03:46.793Z,10.93
2023-03-30T12:09:32.316Z,6.97
2023-03-30T12:12:16.729Z,15.05
2023-03-30T12:15:14.057Z,10.07
2023-03-30T12:17:52.886Z,13.05
2023-03-30T12:20:40.072Z,12.02
2023-03-30T12:23:39.308Z,11.23
2023-03-30T12:26:31.248Z,14.30
2023-03-30T12:29:52.515Z,13.63
2023-03-30T12:32:07.732Z,11.38
2023-03-30T12:34:42.187Z,11.02
2023-03-30T12:37:38.327Z,8.25
2023-03-30T12:40:22.959Z,7.72
2023-03-30T12:43:28.568Z,14.57
2023-03-30T12:46:36.129Z,11.32
2023-03-30T12:49:14.284Z,15.20
2023-03-30T12:52:00.786Z,16.95
2023-03-30T12:54:41.745Z,16.17
2023-03-30T12:57:24.835Z,10.98
2023-03-30T13:00:36.441Z,13.68
2023-03-30T13:03:11.551Z,10.05
2023-03-30T13:05:45.459Z,13.55
2023-03-30T13:08:39.378Z,9.80
2023-03-30T13:11:14.812Z,12.55
2023-03-30T13:13:50.006Z,12.85
2023-03-30T13:16:50.195Z,10.25
2023-03-30T13:19:28.098Z,9.55
2023-03-30T13:22:03.539Z,12.77
2023-03-30T13:24:43.688Z,9.80
2023-03-30T13:27:18.816Z,6.68
2023-03-30T13:29:58.363Z,7.43
2023-03-30T13:33:12.492Z,7.70
2023-03-30T13:35:49.011Z,7.25
2023-03-30T13:38:41.031Z,7.45
2023-03-30T13:41:23.995Z,6.45
2023-03-30T13:44:21.530Z,11.02
2023-03-30T13:46:56.510Z,7.90
2023-03-30T13:49:55.094Z,11.70
2023-03-30T13:52:38.269Z,9.65
2023-03-30T13:55:19.453Z,10.52
2023-03-30T13:57:57.053Z,9.55
2023-03-30T14:00:40.001Z,10.35
2023-03-30T14:03:32.330Z,8.45
2023-03-30T14:06:13.742Z,8.10
2023-03-30T14:08:48.783Z,5.03
2023-03-30T14:11:31.796Z,5.72
2023-03-30T14:14:05.083Z,10.93
2023-03-30T14:16:40.757Z,6.57
2023-03-30T14:19:33.409Z,9.45
2023-03-30T14:22:21.913Z,12.65
2023-03-30T14:24:59.169Z,9.68
2023-03-30T14:27:38.647Z,12.20
2023-03-30T14:30:20.367Z,11.30
2023-03-30T14:33:07.150Z,8.25
2023-03-30T14:35:46.357Z,16.48
2023-03-30T14:38:22.992Z,8.00
2023-03-30T14:40:55.976Z,6.13
2023-03-30T14:43:31.597Z,7.95
2023-03-30T14:46:07.067Z,10.40
2023-03-30T14:48:44.361Z,14.32
2023-03-30T14:51:38.109Z,9.05
2023-03-30T14:54:23.277Z,11.35
2023-03-30T14:57:01.888Z,12.00
2023-03-30T14:59:42.833Z,12.95
2023-03-30T15:02:24.205Z,12.18
2023-03-30T15:04:57.780Z,10.73
2023-03-30T15:07:32.051Z,10.93
2023-03-30T15:10:04.849Z,10.77
2023-03-30T15:12:40.741Z,14.83
2023-03-30T15:15:16.499Z,12.20
2023-03-30T15:17:51.131Z,13.85
2023-03-30T15:20:27.017Z,12.18
2023-03-30T15:23:00.839Z,15.63
2023-03-30T15:25:35.732Z,13.02
2023-03-30T15:28:19.356Z,10.93
2023-03-30T15:30:53.366Z,9.65
2023-03-30T15:33:36.525Z,13.50
2023-03-30T15:36:23.094Z,9.68
2023-03-30T15:38:58.995Z,13.70
2023-03-30T15:41:44.881Z,10.55
2023-03-30T15:44:22.127Z,10.63
2023-03-30T15:46:58.559Z,12.73
2023-03-30T15:49:42.308Z,9.55
2023-03-30T15:52:24.391Z,11.43
2023-03-30T15:54:56.647Z,8.25
2023-03-30T15:57:32.878Z,11.05
2023-03-30T16:00:19.196Z,8.43
2023-03-30T16:02:59.904Z,7.63
2023-03-30T16:05:34.332Z,8.98
2023-03-30T16:08:06.576Z,10.10
2023-03-30T16:10:39.350Z,11.43
2023-03-30T16:13:12.141Z,9.77
2023-03-30T16:15:44.397Z,11.63
2023-03-30T16:18:17.004Z,13.88
2023-03-30T16:20:49.151Z,11.90
2023-03-30T16:23:21.245Z,9.68
2023-03-30T16:25:53.448Z,6.97
2023-03-30T16:28:26.420Z,11.25
2023-03-30T16:31:01.835Z,9.70
2023-03-30T16:33:33.996Z,9.98
2023-03-30T16:36:06.471Z,11.30
2023-03-30T16:38:39.852Z,13.13
2023-03-30T16:41:20.187Z,8.75
2023-03-30T16:43:52.394Z,11.73
2023-03-30T16:46:24.689Z,9.38
2023-03-30T16:48:57.035Z,14.05
2023-03-30T16:51:29.124Z,10.65
2023-03-30T16:54:01.316Z,12.48
2023-03-30T16:56:33.785Z,16.40
2023-03-30T16:59:06.520Z,13.00
2023-03-30T17:01:38.657Z,7.80
2023-03-30T17:04:10.791Z,11.70
2023-03-30T17:06:43.152Z,16.13
2023-03-30T17:09:18.433Z,8.57
2023-03-30T17:11:51.056Z,12.27
2023-03-30T17:14:24.837Z,10.07
2023-03-30T17:16:57.203Z,8.65
2023-03-30T17:19:29.564Z,13.40
2023-03-30T17:22:02.146Z,13.40
2023-03-30T17:24:34.399Z,8.63
2023-03-30T17:27:07.413Z,13.45
2023-03-30T17:29:40.949Z,10.32
2023-03-30T17:32:13.742Z,13.02
2023-03-30T17:34:46.407Z,13.23
2023-03-30T17:37:18.632Z,10.95
2023-03-30T17:39:51.118Z,10.55
2023-03-30T17:42:24.249Z,13.15
2023-03-30T17:44:56.776Z,10.63
2023-03-30T17:47:29.199Z,12.05
2023-03-30T17:50:01.348Z,10.02
2023-03-30T17:52:33.438Z,14.48
2023-03-30T17:55:06.050Z,11.45
2023-03-30T17:57:38.278Z,15.25
2023-03-30T18:00:18.611Z,9.65
2023-03-30T18:02:52.634Z,11.65
2023-03-30T18:07:59.059Z,14.17
2023-03-30T18:10:40.625Z,17.73
2023-03-30T18:13:12.725Z,9.48
2023-03-30T18:15:48.969Z,11.13
2023-03-30T18:18:25.126Z,9.68
2023-03-30T18:21:06.861Z,12.43
2023-03-30T18:23:39.039Z,17.13
2023-03-30T18:26:13.088Z,9.35
2023-03-30T18:28:46.650Z,12.32
2023-03-30T18:31:18.952Z,11.95
2023-03-30T18:33:53.362Z,13.02
2023-03-30T18:36:25.870Z,9.90
2023-03-30T18:38:58.141Z,11.60
2023-03-30T18:41:30.461Z,16.52
2023-03-30T18:44:02.775Z,15.85
2023-03-30T18:46:35.110Z,16.67
2023-03-30T18:49:14.333Z,14.63
2023-03-30T18:51:46.714Z,12.05
2023-03-30T18:54:18.818Z,14.88
2023-03-30T18:56:51.669Z,11.15
2023-03-30T18:59:25.220Z,16.77
2023-03-30T19:04:29.693Z,14.60
2023-03-30T19:07:02.018Z,16.40
2023-03-30T19:09:43.087Z,11.23
2023-03-30T19:12:16.329Z,14.75
2023-03-30T19:14:48.394Z,9.87
2023-03-30T19:17:20.721Z,12.75
2023-03-30T19:19:52.827Z,8.50
2023-03-30T19:22:25.483Z,11.32
2023-03-30T19:24:57.493Z,9.80
2023-03-30T19:27:30.097Z,8.55
2023-03-30T19:30:02.606Z,10.05
2023-03-30T19:32:34.976Z,8.55
2023-03-30T19:35:08.473Z,14.80
2023-03-30T19:37:41.735Z,7.57
2023-03-30T19:40:16.468Z,8.52
2023-03-30T19:42:49.444Z,7.05
2023-03-30T19:45:24.024Z,8.30
2023-03-30T19:47:56.395Z,9.15
2023-03-30T19:50:31.832Z,6.72
2023-03-30T19:53:03.919Z,7.22
2023-03-30T19:55:36.110Z,8.25
2023-03-30T19:58:14.137Z,10.07
2023-03-30T20:00:47.440Z,7.88
2023-03-30T20:03:19.704Z,50.47
2023-03-30T20:05:52.093Z,23.40
2023-03-30T20:08:24.973Z,25.23
2023-03-30T20:10:58.955Z,11.88
2023-03-30T20:13:31.935Z,8.77
2023-03-30T20:16:04.379Z,6.63
2023-03-30T20:21:12.373Z,7.80
2023-03-30T20:23:45.975Z,7.32
2023-03-30T20:28:51.669Z,8.38
2023-03-30T20:31:24.389Z,6.95
2023-03-30T20:33:58.728Z,6.22
2023-03-30T20:36:34.303Z,5.85
2023-03-30T20:39:07.773Z,5.70
2023-03-30T20:41:40.202Z,6.75
2023-03-30T20:44:13.108Z,6.80
2023-03-30T20:46:45.507Z,8.57
2023-03-30T20:49:17.645Z,8.55
2023-03-30T20:51:51.253Z,8.05
2023-03-30T20:56:55.864Z,7.57
2023-03-30T20:59:28.542Z,5.57
2023-03-30T21:02:00.615Z,8.07
2023-03-30T21:04:33.954Z,11.73
2023-03-30T21:07:10.766Z,7.47
2023-03-30T21:09:42.828Z,7.82
2023-03-30T21:12:15.655Z,9.70
2023-03-30T21:14:47.781Z,6.82
2023-03-30T21:17:19.937Z,8.73
2023-03-30T21:19:51.948Z,10.32
2023-03-30T21:22:24.332Z,7.60
2023-03-30T21:24:56.624Z,8.05
2023-03-30T21:27:28.952Z,9.98
2023-03-30T21:30:01.137Z,7.30
2023-03-30T21:32:33.383Z,8.43
2023-03-30T21:35:05.785Z,6.07
2023-03-30T21:37:38.181Z,10.10
2023-03-30T21:40:11.309Z,9.90
2023-03-30T21:42:43.467Z,5.82
2023-03-30T21:45:17.442Z,8.45
2023-03-30T21:47:49.482Z,10.38
2023-03-30T21:50:21.557Z,7.70
2023-03-30T21:52:59.460Z,6.18
2023-03-30T21:55:31.522Z,8.18
2023-03-30T21:58:03.945Z,10.77
2023-03-30T22:00:36.129Z,11.07
2023-03-30T22:03:08.600Z,8.43
2023-03-30T22:05:42.190Z,11.10
2023-03-30T22:08:16.367Z,11.45
2023-03-30T22:10:56.489Z,11.55
2023-03-30T22:13:28.730Z,10.65
2023-03-30T22:16:07.231Z,11.90
2023-03-30T22:18:40.887Z,13.68
2023-03-30T22:21:17.350Z,11.75
2023-03-30T22:23:49.733Z,16.77
2023-03-30T22:26:22.452Z,12.45
2023-03-30T22:28:56.353Z,12.00
2023-03-30T22:31:28.811Z,16.05
2023-03-30T22:34:01.143Z,15.07
2023-03-30T22:36:34.088Z,13.85
2023-03-30T22:39:06.165Z,17.38
2023-03-30T22:41:38.425Z,11.23
2023-03-30T22:44:11.343Z,10.18
2023-03-30T22:49:17.858Z,13.68
2023-03-30T22:51:53.251Z,13.02
2023-03-30T22:54:25.542Z,16.48
2023-03-30T22:56:58.557Z,10.55
2023-03-30T22:59:31.004Z,15.88
2023-03-30T23:02:03.753Z,16.90
2023-03-30T23:04:36.389Z,15.17
2023-03-30T23:07:10.511Z,14.50
2023-03-30T23:09:47.512Z,16.60
2023-03-30T23:12:19.985Z,13.48
2023-03-30T23:14:52.019Z,13.77
2023-03-30T23:17:24.716Z,19.70
2023-03-30T23:19:58.390Z,13.20
2023-03-30T23:22:30.383Z,12.93
2023-03-30T23:25:02.444Z,11.38
2023-03-30T23:27:35.563Z,14.43
2023-03-30T23:30:08.893Z,13.63
2023-03-30T23:32:41.331Z,14.20
2023-03-30T23:35:13.395Z,17.58
2023-03-30T23:37:45.619Z,13.90
2023-03-30T23:40:17.993Z,12.85
2023-03-30T23:42:50.019Z,15.80
2023-03-30T23:45:22.042Z,21.02
2023-03-30T23:47:54.116Z,18.45
2023-03-30T23:50:28.709Z,15.00
2023-03-30T23:53:01.357Z,12.07
2023-03-30T23:55:33.870Z,20.83
2023-03-30T23:58:05.881Z,16.85
